createdAt,value
2022-09-25T00:02:25.504Z,32.70
2022-09-25T00:05:27.870Z,32.70
2022-09-25T00:08:30.176Z,32.70
2022-09-25T00:11:33.344Z,32.60
2022-09-25T00:14:35.492Z,32.60
2022-09-25T00:17:37.619Z,32.50
2022-09-25T00:20:39.503Z,32.50
2022-09-25T00:23:44.789Z,32.40
2022-09-25T00:26:46.678Z,32.40
2022-09-25T00:29:48.790Z,32.40
2022-09-25T00:32:50.789Z,32.30
2022-09-25T00:35:53.181Z,32.30
2022-09-25T00:38:55.198Z,32.30
2022-09-25T00:41:57.501Z,32.30
2022-09-25T00:45:01.244Z,32.20
2022-09-25T00:48:07.307Z,32.10
2022-09-25T00:51:09.191Z,32.10
2022-09-25T00:54:17.561Z,32.10
2022-09-25T00:57:23.250Z,32.00
2022-09-25T01:00:25.478Z,32.00
2022-09-25T01:03:28.008Z,32.00
2022-09-25T01:06:31.524Z,32.00
2022-09-25T01:09:33.561Z,32.10
2022-09-25T01:12:39.177Z,32.00
2022-09-25T01:16:08.466Z,32.10
2022-09-25T01:19:19.269Z,32.00
2022-09-25T01:22:58.223Z,31.90
2022-09-25T01:26:54.284Z,31.90
2022-09-25T01:30:15.368Z,31.90
2022-09-25T01:33:49.467Z,31.90
2022-09-25T01:36:57.969Z,31.90
2022-09-25T01:40:21.814Z,31.90
2022-09-25T01:43:48.200Z,31.80
2022-09-25T01:46:53.382Z,31.80
2022-09-25T01:50:01.675Z,31.80
2022-09-25T01:53:11.420Z,31.70
2022-09-25T01:56:33.063Z,31.70
2022-09-25T01:59:57.703Z,31.60
2022-09-25T02:03:11.399Z,31.60
2022-09-25T02:06:17.475Z,31.60
2022-09-25T02:09:29.530Z,31.60
2022-09-25T02:12:43.400Z,31.60
2022-09-25T02:15:57.770Z,31.60
2022-09-25T02:19:19.087Z,31.60
2022-09-25T02:22:35.922Z,31.60
2022-09-25T02:25:43.220Z,31.60
2022-09-25T02:28:45.113Z,31.60
2022-09-25T02:31:59.388Z,31.60
2022-09-25T02:35:01.497Z,31.70
2022-09-25T02:38:04.733Z,31.70
2022-09-25T02:41:15.937Z,31.60
2022-09-25T02:44:21.193Z,31.60
2022-09-25T02:47:49.022Z,31.70
2022-09-25T02:51:18.115Z,31.50
2022-09-25T02:54:33.521Z,31.50
2022-09-25T02:57:43.359Z,31.50
2022-09-25T03:00:50.435Z,31.50
2022-09-25T03:03:56.244Z,31.50
2022-09-25T03:06:58.488Z,31.50
2022-09-25T03:10:00.694Z,31.50
2022-09-25T03:13:33.200Z,31.40
2022-09-25T03:16:51.553Z,31.40
2022-09-25T03:19:53.524Z,31.50
2022-09-25T03:22:55.574Z,31.50
2022-09-25T03:25:57.870Z,31.40
2022-09-25T03:29:02.187Z,31.40
2022-09-25T03:32:04.746Z,31.50
2022-09-25T03:35:07.126Z,31.50
2022-09-25T03:38:10.376Z,31.40
2022-09-25T03:41:14.278Z,31.50
2022-09-25T03:44:16.263Z,31.60
2022-09-25T03:47:18.325Z,31.60
2022-09-25T03:50:20.329Z,31.70
2022-09-25T03:53:25.304Z,31.80
2022-09-25T03:56:28.971Z,31.80
2022-09-25T03:59:31.223Z,31.90
2022-09-25T04:02:33.168Z,31.90
2022-09-25T04:05:35.890Z,31.90
2022-09-25T04:08:38.614Z,32.00
2022-09-25T04:11:40.906Z,32.00
2022-09-25T04:14:46.912Z,32.00
2022-09-25T04:17:49.812Z,32.00
2022-09-25T04:20:52.290Z,32.00
2022-09-25T04:24:12.866Z,32.00
2022-09-25T04:27:16.096Z,32.10
2022-09-25T04:30:18.300Z,32.20
2022-09-25T04:33:39.245Z,32.20
2022-09-25T04:36:41.463Z,32.30
2022-09-25T04:39:43.333Z,32.30
2022-09-25T04:42:45.466Z,32.30
2022-09-25T04:45:47.950Z,32.30
2022-09-25T04:48:54.937Z,32.30
2022-09-25T04:51:57.088Z,32.30
2022-09-25T04:55:00.830Z,32.30
2022-09-25T04:58:05.460Z,32.30
2022-09-25T05:01:09.677Z,32.40
2022-09-25T05:04:13.292Z,32.50
2022-09-25T05:07:15.606Z,32.30
2022-09-25T05:10:17.488Z,32.30
2022-09-25T05:13:20.224Z,32.20
2022-09-25T05:16:22.226Z,32.30
2022-09-25T05:19:24.485Z,32.30
2022-09-25T05:22:26.396Z,32.40
2022-09-25T05:25:28.562Z,32.50
2022-09-25T05:28:31.824Z,32.60
2022-09-25T05:31:33.993Z,32.60
2022-09-25T05:34:36.055Z,32.70
2022-09-25T05:37:38.156Z,32.80
2022-09-25T05:40:40.370Z,32.90
2022-09-25T05:43:46.699Z,32.90
2022-09-25T05:46:48.577Z,33.00
2022-09-25T05:49:50.634Z,33.00
2022-09-25T05:52:56.807Z,33.00
2022-09-25T05:56:01.892Z,33.00
2022-09-25T05:59:04.033Z,33.10
2022-09-25T06:02:06.620Z,33.10
2022-09-25T06:05:09.109Z,33.30
2022-09-25T06:08:11.258Z,33.30
2022-09-25T06:11:13.138Z,33.60
2022-09-25T06:14:16.599Z,33.70
2022-09-25T06:17:18.873Z,33.90
2022-09-25T06:20:22.385Z,34.00
2022-09-25T06:23:24.424Z,34.00
2022-09-25T06:26:26.500Z,34.10
2022-09-25T06:29:28.417Z,34.20
2022-09-25T06:32:30.475Z,34.20
2022-09-25T06:35:32.338Z,34.40
2022-09-25T06:38:34.491Z,34.40
2022-09-25T06:41:36.841Z,34.40
2022-09-25T06:44:39.223Z,34.40
2022-09-25T06:47:41.174Z,34.50
2022-09-25T06:50:55.314Z,34.70
2022-09-25T06:53:57.532Z,34.60
2022-09-25T06:56:59.610Z,34.70
2022-09-25T07:00:01.742Z,34.70
2022-09-25T07:03:22.481Z,34.80
2022-09-25T07:06:27.859Z,34.90
2022-09-25T07:09:29.943Z,34.70
2022-09-25T07:12:33.535Z,34.90
2022-09-25T07:15:35.839Z,34.90
2022-09-25T07:18:37.980Z,35.10
2022-09-25T07:21:40.080Z,35.20
2022-09-25T07:24:41.972Z,35.30
2022-09-25T07:27:44.042Z,35.60
2022-09-25T07:30:48.611Z,35.50
2022-09-25T07:33:50.743Z,35.40
2022-09-25T07:36:54.472Z,35.40
2022-09-25T07:39:56.530Z,35.60
2022-09-25T07:43:00.119Z,35.60
2022-09-25T07:46:02.234Z,35.80
2022-09-25T07:49:04.146Z,35.40
2022-09-25T07:52:06.603Z,35.60
2022-09-25T07:55:09.103Z,35.90
2022-09-25T07:58:12.036Z,35.90
2022-09-25T08:01:14.209Z,36.10
2022-09-25T08:04:16.314Z,36.30
2022-09-25T08:07:18.273Z,36.30
2022-09-25T08:10:21.176Z,36.50
2022-09-25T08:13:23.164Z,36.40
2022-09-25T08:16:25.351Z,35.70
2022-09-25T08:19:28.002Z,36.00
2022-09-25T08:22:30.072Z,36.00
2022-09-25T08:25:32.043Z,36.30
2022-09-25T08:28:34.921Z,36.40
2022-09-25T08:31:36.902Z,36.50
2022-09-25T08:34:41.603Z,36.80
2022-09-25T08:37:46.094Z,36.80
2022-09-25T08:41:15.763Z,37.00
2022-09-25T08:44:26.774Z,36.60
2022-09-25T08:47:47.810Z,36.90
2022-09-25T08:50:51.582Z,37.10
2022-09-25T08:53:53.818Z,37.50
2022-09-25T08:56:59.772Z,37.40
2022-09-25T09:00:12.594Z,37.20
2022-09-25T09:03:17.054Z,37.30
2022-09-25T09:06:20.809Z,37.40
2022-09-25T09:09:29.778Z,37.40
2022-09-25T09:12:35.591Z,37.30
2022-09-25T09:15:43.236Z,37.40
2022-09-25T09:18:45.421Z,37.60
2022-09-25T09:22:09.247Z,37.60
2022-09-25T09:25:29.046Z,37.10
2022-09-25T09:29:07.863Z,37.20
2022-09-25T09:32:15.942Z,37.50
2022-09-25T09:35:46.568Z,37.20
2022-09-25T09:38:55.822Z,37.60
2022-09-25T09:42:09.212Z,37.80
2022-09-25T09:45:44.198Z,37.60
2022-09-25T09:49:11.020Z,37.50
2022-09-25T09:52:21.478Z,37.30
2022-09-25T09:55:28.970Z,37.50
2022-09-25T09:58:43.370Z,37.60
2022-09-25T10:01:54.495Z,37.60
2022-09-25T10:04:59.774Z,37.80
2022-09-25T10:08:01.753Z,38.10
2022-09-25T10:11:11.131Z,38.50
2022-09-25T10:14:21.939Z,38.60
2022-09-25T10:17:25.353Z,38.70
2022-09-25T10:20:51.774Z,38.50
2022-09-25T10:23:56.057Z,38.70
2022-09-25T10:27:31.817Z,38.30
2022-09-25T10:30:34.055Z,37.60
2022-09-25T10:33:36.401Z,38.20
2022-09-25T10:36:44.993Z,38.40
2022-09-25T10:40:08.383Z,38.50
2022-09-25T10:43:23.692Z,38.30
2022-09-25T10:46:55.675Z,37.90
2022-09-25T10:50:17.547Z,38.00
2022-09-25T10:53:38.119Z,37.10
2022-09-25T10:56:40.602Z,36.70
2022-09-25T10:59:50.412Z,37.20
2022-09-25T11:03:00.710Z,37.50
2022-09-25T11:06:06.271Z,37.80
2022-09-25T11:09:21.206Z,37.90
2022-09-25T11:12:26.824Z,37.80
2022-09-25T11:15:31.685Z,37.30
2022-09-25T11:18:51.542Z,37.30
2022-09-25T11:22:01.400Z,37.20
2022-09-25T11:25:30.332Z,37.00
2022-09-25T11:28:54.255Z,37.20
2022-09-25T11:32:15.856Z,37.30
2022-09-25T11:35:39.467Z,37.30
2022-09-25T11:39:08.266Z,37.20
2022-09-25T11:42:19.327Z,37.20
2022-09-25T11:45:47.517Z,37.30
2022-09-25T11:49:02.763Z,37.10
2022-09-25T11:52:19.863Z,37.20
2022-09-25T11:55:27.813Z,36.10
2022-09-25T11:59:01.910Z,35.20
2022-09-25T12:02:26.129Z,35.60
2022-09-25T12:05:35.191Z,36.30
2022-09-25T12:08:57.210Z,36.30
2022-09-25T12:12:17.668Z,36.10
2022-09-25T12:15:42.445Z,36.50
2022-09-25T12:19:03.551Z,36.70
2022-09-25T12:22:11.533Z,37.00
2022-09-25T12:25:45.130Z,37.00
2022-09-25T12:29:19.470Z,36.50
2022-09-25T12:32:54.030Z,36.10
2022-09-25T12:36:03.467Z,36.40
2022-09-25T12:39:31.781Z,36.80
2022-09-25T12:42:56.823Z,37.20
2022-09-25T12:46:10.253Z,37.60
2022-09-25T12:49:35.317Z,37.70
2022-09-25T12:52:59.890Z,37.60
2022-09-25T12:56:24.329Z,37.70
2022-09-25T12:59:46.623Z,37.80
2022-09-25T13:02:54.434Z,37.70
2022-09-25T13:06:08.048Z,37.90
2022-09-25T13:09:30.439Z,38.00
2022-09-25T13:12:38.424Z,37.90
2022-09-25T13:15:42.997Z,38.00
2022-09-25T13:19:11.541Z,37.80
2022-09-25T13:22:20.710Z,37.60
2022-09-25T13:25:23.345Z,37.60
2022-09-25T13:28:31.728Z,37.30
2022-09-25T13:31:37.141Z,37.50
2022-09-25T13:34:41.126Z,37.50
2022-09-25T13:37:43.107Z,37.70
2022-09-25T13:40:50.260Z,38.00
2022-09-25T13:44:31.510Z,38.10
2022-09-25T13:47:50.817Z,38.30
2022-09-25T13:51:18.924Z,38.40
2022-09-25T13:54:21.075Z,38.50
2022-09-25T13:58:02.141Z,38.70
2022-09-25T14:01:18.080Z,38.80
2022-09-25T14:04:27.624Z,39.00
2022-09-25T14:07:29.846Z,39.00
2022-09-25T14:10:32.072Z,39.10
2022-09-25T14:13:34.704Z,39.10
2022-09-25T14:16:48.542Z,39.10
2022-09-25T14:19:54.483Z,39.10
2022-09-25T14:23:00.195Z,39.10
2022-09-25T14:26:06.079Z,39.00
2022-09-25T14:29:16.513Z,39.00
2022-09-25T14:32:55.057Z,38.90
2022-09-25T14:36:22.336Z,38.90
2022-09-25T14:39:38.610Z,38.90
2022-09-25T14:42:56.871Z,39.00
2022-09-25T14:46:03.188Z,39.00
2022-09-25T14:49:24.261Z,39.00
2022-09-25T14:52:32.109Z,38.90
2022-09-25T14:55:38.327Z,38.80
2022-09-25T14:58:53.435Z,38.80
2022-09-25T15:01:55.808Z,38.70
2022-09-25T15:04:59.037Z,38.70
2022-09-25T15:08:02.607Z,38.70
2022-09-25T15:11:11.676Z,38.60
2022-09-25T15:14:19.910Z,38.50
2022-09-25T15:17:23.530Z,38.40
2022-09-25T15:20:28.985Z,38.30
2022-09-25T15:23:34.910Z,38.20
2022-09-25T15:26:44.789Z,38.10
2022-09-25T15:29:48.459Z,38.10
2022-09-25T15:32:58.342Z,38.00
2022-09-25T15:36:16.980Z,37.80
2022-09-25T15:39:26.309Z,37.80
2022-09-25T15:42:28.484Z,37.80
2022-09-25T15:45:42.881Z,37.80
2022-09-25T15:48:55.561Z,37.70
2022-09-25T15:52:01.276Z,37.70
2022-09-25T15:55:11.663Z,37.80
2022-09-25T15:58:16.778Z,37.80
2022-09-25T16:01:41.935Z,37.80
2022-09-25T16:04:50.367Z,37.70
2022-09-25T16:07:52.526Z,37.60
2022-09-25T16:11:17.327Z,37.60
2022-09-25T16:14:31.644Z,37.40
2022-09-25T16:17:40.226Z,37.30
2022-09-25T16:20:42.597Z,37.20
2022-09-25T16:23:55.591Z,37.10
2022-09-25T16:27:04.304Z,36.90
2022-09-25T16:30:07.569Z,36.80
2022-09-25T16:33:26.831Z,36.60
2022-09-25T16:36:41.865Z,36.40
2022-09-25T16:39:44.037Z,36.30
2022-09-25T16:42:47.371Z,36.20
2022-09-25T16:46:00.793Z,36.00
2022-09-25T16:49:04.818Z,35.80
2022-09-25T16:52:08.574Z,35.70
2022-09-25T16:55:27.378Z,35.60
2022-09-25T16:58:29.594Z,35.50
2022-09-25T17:01:31.763Z,35.40
2022-09-25T17:04:35.863Z,35.20
2022-09-25T17:07:37.782Z,35.20
2022-09-25T17:10:40.697Z,35.10
2022-09-25T17:13:42.997Z,35.00
2022-09-25T17:16:45.087Z,34.90
2022-09-25T17:19:47.406Z,34.80
2022-09-25T17:22:50.811Z,34.70
2022-09-25T17:26:19.476Z,34.70
2022-09-25T17:29:22.514Z,34.60
2022-09-25T17:32:24.386Z,34.50
2022-09-25T17:36:05.396Z,34.50
2022-09-25T17:39:07.614Z,34.30
2022-09-25T17:42:11.495Z,34.30
2022-09-25T17:45:39.622Z,34.20
2022-09-25T17:48:42.699Z,34.10
2022-09-25T17:51:44.810Z,34.10
2022-09-25T17:54:47.016Z,34.10
2022-09-25T17:57:49.440Z,34.00
2022-09-25T18:00:54.036Z,34.00
2022-09-25T18:04:01.469Z,34.00
2022-09-25T18:07:04.675Z,34.00
2022-09-25T18:10:07.513Z,34.00
2022-09-25T18:13:14.211Z,34.10
2022-09-25T18:16:28.095Z,34.10
2022-09-25T18:19:49.140Z,34.10
2022-09-25T18:22:51.844Z,34.20
2022-09-25T18:25:54.916Z,34.20
2022-09-25T18:28:56.944Z,34.30
2022-09-25T18:31:59.466Z,34.30
2022-09-25T18:35:02.959Z,34.40
2022-09-25T18:38:05.082Z,34.40
2022-09-25T18:41:07.523Z,34.50
2022-09-25T18:44:09.924Z,34.50
2022-09-25T18:47:11.978Z,34.60
2022-09-25T18:50:19.644Z,34.60
2022-09-25T18:53:22.684Z,34.70
2022-09-25T18:56:24.943Z,34.70
2022-09-25T18:59:26.958Z,34.70
2022-09-25T19:02:31.560Z,34.70
2022-09-25T19:05:33.655Z,34.70
2022-09-25T19:08:38.795Z,34.70
2022-09-25T19:11:40.822Z,34.70
2022-09-25T19:14:47.380Z,34.70
2022-09-25T19:17:49.311Z,34.70
2022-09-25T19:20:56.235Z,34.70
2022-09-25T19:23:58.277Z,34.70
2022-09-25T19:27:00.378Z,34.60
2022-09-25T19:30:02.320Z,34.50
2022-09-25T19:33:04.439Z,34.40
2022-09-25T19:36:13.237Z,34.30
2022-09-25T19:39:15.442Z,34.20
2022-09-25T19:42:17.523Z,34.10
2022-09-25T19:45:21.183Z,34.10
2022-09-25T19:48:25.426Z,34.10
2022-09-25T19:51:27.854Z,34.00
2022-09-25T19:54:29.847Z,34.00
2022-09-25T19:57:31.950Z,34.00
2022-09-25T20:00:36.634Z,34.00
2022-09-25T20:03:39.702Z,33.90
2022-09-25T20:06:41.688Z,33.90
2022-09-25T20:09:44.649Z,33.90
2022-09-25T20:12:46.602Z,33.90
2022-09-25T20:15:48.720Z,33.90
2022-09-25T20:18:57.755Z,33.90
2022-09-25T20:21:59.902Z,34.00
2022-09-25T20:25:01.854Z,34.00
2022-09-25T20:28:05.266Z,34.00
2022-09-25T20:31:09.917Z,33.90
2022-09-25T20:34:15.247Z,34.00
2022-09-25T20:37:17.400Z,33.90
2022-09-25T20:40:19.641Z,34.00
2022-09-25T20:43:21.917Z,34.00
2022-09-25T20:46:25.899Z,34.00
2022-09-25T20:49:27.813Z,34.10
2022-09-25T20:52:33.372Z,34.10
2022-09-25T20:55:38.050Z,34.10
2022-09-25T20:58:41.514Z,34.10
2022-09-25T21:01:43.490Z,34.10
2022-09-25T21:04:46.703Z,34.10
2022-09-25T21:07:48.569Z,34.10
2022-09-25T21:10:50.944Z,34.20
2022-09-25T21:13:55.528Z,34.20
2022-09-25T21:16:57.708Z,34.20
2022-09-25T21:20:00.199Z,34.20
2022-09-25T21:23:02.265Z,34.20
2022-09-25T21:26:10.179Z,34.30
2022-09-25T21:29:14.583Z,34.30
2022-09-25T21:32:16.518Z,34.30
2022-09-25T21:35:18.957Z,34.30
2022-09-25T21:38:20.927Z,34.30
2022-09-25T21:41:25.257Z,34.30
2022-09-25T21:44:27.196Z,34.30
2022-09-25T21:47:31.672Z,34.30
2022-09-25T21:50:33.753Z,34.40
2022-09-25T21:53:35.826Z,34.40
2022-09-25T21:56:37.953Z,34.50
2022-09-25T21:59:41.325Z,34.40
2022-09-25T22:02:43.805Z,34.50
2022-09-25T22:05:48.131Z,34.40
2022-09-25T22:08:55.774Z,34.40
2022-09-25T22:11:57.932Z,34.40
2022-09-25T22:14:59.785Z,34.40
2022-09-25T22:18:01.867Z,34.40
2022-09-25T22:21:04.059Z,34.50
2022-09-25T22:24:07.089Z,34.50
2022-09-25T22:27:09.027Z,34.40
2022-09-25T22:30:11.548Z,34.50
2022-09-25T22:33:13.715Z,34.40
2022-09-25T22:36:15.843Z,34.40
2022-09-25T22:39:19.060Z,34.50
2022-09-25T22:42:23.118Z,34.40
2022-09-25T22:45:24.964Z,34.40
2022-09-25T22:48:27.145Z,34.40
2022-09-25T22:51:29.201Z,34.40
2022-09-25T22:54:31.263Z,34.40
2022-09-25T22:57:38.928Z,34.40
2022-09-25T23:00:47.214Z,34.30
2022-09-25T23:03:49.219Z,34.30
2022-09-25T23:06:52.056Z,34.30
2022-09-25T23:09:53.974Z,34.30
2022-09-25T23:12:56.127Z,34.30
2022-09-25T23:16:03.237Z,34.30
2022-09-25T23:19:05.349Z,34.30
2022-09-25T23:22:07.493Z,34.20
2022-09-25T23:25:09.950Z,34.20
2022-09-25T23:28:12.197Z,34.20
2022-09-25T23:31:16.791Z,34.10
2022-09-25T23:34:19.661Z,34.00
2022-09-25T23:37:21.751Z,34.10
2022-09-25T23:40:23.636Z,34.10
2022-09-25T23:43:25.857Z,34.20
2022-09-25T23:46:30.276Z,34.30
2022-09-25T23:49:32.449Z,34.30
2022-09-25T23:52:34.932Z,34.30
2022-09-25T23:55:42.583Z,34.30
2022-09-25T23:58:44.584Z,34.20
